Terminal Aerodrome Forecast
Issued by NWS

Home | Current Version | Previous Version | Graphics & Text | Print | Product List | Glossary Off
Versions: 1 2 3 4 5 6 7 8 9 10 11 12 13 14

000
FTUS43 KICT 050315 AAA
TAFRSL
TAF AMD
KRSL 050315Z 0503/0524 16010KT P6SM OVC050
     FM050600 14007KT P6SM SCT050
     FM050900 12008KT P6SM SCT015 BKN025=

USA.gov is the U.S. government's official web portal to all federal, state and local government web resources and services.